Time;durP1;ratioP1;P1;durP2;ratioP2;P2;SDS_P1;SDS_P2;PMS_P1;PMS_P2;Temp;Humidity;BMP_temperature;BMP_pressure;BME280_temperature;BME280_humidity;BME280_pressure;Samples;Min_cycle;Max_cycle;Signal;HPM_P1;HPM_P2
2021/06/21 00:01:51;;;;;;;9.30;2.05;;;16.40;99.90;;;;;;5071962;28;20028;-64
2021/06/21 00:04:17;;;;;;;6.88;1.77;;;16.50;99.90;;;;;;5071120;28;20024;-64
2021/06/21 00:06:43;;;;;;;7.55;1.98;;;16.50;99.90;;;;;;5071475;28;20540;-63
2021/06/21 00:09:08;;;;;;;7.43;1.70;;;16.50;99.90;;;;;;5069780;28;20047;-63
2021/06/21 00:11:34;;;;;;;11.98;2.85;;;16.50;99.90;;;;;;5071212;28;20103;-64
2021/06/21 00:14:00;;;;;;;9.75;1.80;;;16.50;99.90;;;;;;5070371;28;20392;-64
2021/06/21 00:16:26;;;;;;;6.10;2.10;;;16.50;99.90;;;;;;5071079;28;20020;-64
2021/06/21 00:18:52;;;;;;;7.13;1.80;;;16.50;99.90;;;;;;5070824;28;20093;-64
2021/06/21 00:21:17;;;;;;;10.82;2.03;;;16.60;99.90;;;;;;5070531;28;20032;-64
2021/06/21 00:23:43;;;;;;;11.90;1.92;;;16.60;99.90;;;;;;5071257;28;20051;-64
2021/06/21 00:26:09;;;;;;;5.68;2.00;;;16.60;99.90;;;;;;5069986;28;20024;-64
2021/06/21 00:28:34;;;;;;;12.68;1.83;;;16.60;99.90;;;;;;5071253;28;20056;-64
2021/06/21 00:31:00;;;;;;;11.23;2.50;;;16.60;99.90;;;;;;5070334;28;20466;-64
2021/06/21 00:33:26;;;;;;;8.27;1.80;;;16.60;99.90;;;;;;5070376;28;20024;-63
2021/06/21 00:35:52;;;;;;;7.90;2.17;;;16.60;99.90;;;;;;5070926;28;20032;-64
2021/06/21 00:38:17;;;;;;;7.07;1.70;;;16.70;99.90;;;;;;5069890;28;20034;-64
2021/06/21 00:40:43;;;;;;;7.45;1.90;;;16.60;99.90;;;;;;5070675;28;20515;-64
2021/06/21 00:43:08;;;;;;;9.43;1.98;;;16.70;99.90;;;;;;5070271;28;20055;-64
2021/06/21 00:45:35;;;;;;;9.55;2.65;;;16.70;99.90;;;;;;5071059;28;20480;-63
2021/06/21 00:48:00;;;;;;;9.02;1.85;;;16.70;99.90;;;;;;5069748;28;20033;-64
2021/06/21 00:50:28;;;;;;;6.68;1.65;;;16.70;99.90;;;;;;5070699;28;20028;-65
2021/06/21 00:52:59;;;;;;;13.13;2.60;;;16.80;99.90;;;;;;5070753;28;20044;-64
2021/06/21 00:55:26;;;;;;;6.00;2.17;;;16.80;99.90;;;;;;5070762;28;20078;-64
2021/06/21 00:57:51;;;;;;;6.40;1.77;;;16.80;99.90;;;;;;5074556;28;20028;-64
2021/06/21 01:00:21;;;;;;;14.00;3.03;;;16.80;99.90;;;;;;5074065;28;20070;-64
2021/06/21 01:02:48;;;;;;;13.80;2.35;;;16.80;99.90;;;;;;5074505;28;20028;-64
2021/06/21 01:05:15;;;;;;;9.25;2.03;;;16.80;99.90;;;;;;5073286;28;20029;-64
2021/06/21 01:07:41;;;;;;;7.88;2.30;;;16.80;99.90;;;;;;5074280;28;20488;-64
2021/06/21 01:10:08;;;;;;;10.63;2.33;;;16.90;99.90;;;;;;5073451;28;20389;-64
2021/06/21 01:12:46;;;;;;;9.57;1.98;;;16.80;99.90;;;;;;5075001;28;20534;-64
2021/06/21 01:15:30;;;;;;;14.60;2.42;;;16.80;99.90;;;;;;5065956;28;20321;-64
2021/06/21 01:18:20;;;;;;;7.65;1.90;;;16.90;99.90;;;;;;5073909;28;20492;-63
2021/06/21 01:21:09;;;;;;;8.20;2.28;;;16.80;99.90;;;;;;5073982;28;20036;-63
2021/06/21 01:24:09;;;;;;;13.85;2.40;;;16.80;99.90;;;;;;5067513;28;20035;-63
2021/06/21 01:26:41;;;;;;;11.38;2.53;;;16.70;99.90;;;;;;5035104;28;20409;-63
2021/06/21 01:29:46;;;;;;;8.20;2.13;;;16.70;99.90;;;;;;5073543;28;20120;-64
2021/06/21 01:32:16;;;;;;;12.10;2.10;;;16.70;99.90;;;;;;4971978;28;20054;-63
2021/06/21 01:34:55;;;;;;;8.32;2.28;;;16.70;99.90;;;;;;5058643;28;20047;-63
2021/06/21 01:37:23;;;;;;;8.35;2.92;;;16.70;99.90;;;;;;5067410;28;20024;-63
2021/06/21 01:39:55;;;;;;;9.05;2.30;;;16.70;99.90;;;;;;5073899;28;20465;-64
2021/06/21 01:42:23;;;;;;;12.35;2.65;;;16.70;99.90;;;;;;5063902;28;20029;-62
2021/06/21 01:45:02;;;;;;;9.73;2.38;;;16.70;99.90;;;;;;5073484;28;20525;-63
2021/06/21 01:47:29;;;;;;;11.65;2.85;;;16.70;99.90;;;;;;5055896;28;20550;-62
2021/06/21 01:49:56;;;;;;;12.20;2.33;;;16.70;99.90;;;;;;5073761;28;20362;-63
2021/06/21 01:52:23;;;;;;;9.75;2.42;;;16.70;99.90;;;;;;5072649;28;20044;-63
2021/06/21 01:54:54;;;;;;;15.00;2.65;;;16.70;99.90;;;;;;5073018;28;20044;-63
2021/06/21 01:57:27;;;;;;;8.75;2.50;;;16.80;99.90;;;;;;5072995;28;20613;-62
2021/06/21 01:59:54;;;;;;;7.70;2.55;;;16.80;99.90;;;;;;5073780;28;20040;-64
2021/06/21 02:02:24;;;;;;;6.57;2.08;;;16.80;99.90;;;;;;5072567;28;20103;-62
2021/06/21 02:04:54;;;;;;;9.85;2.30;;;16.80;99.90;;;;;;5073214;28;20107;-63
2021/06/21 02:07:21;;;;;;;9.95;2.08;;;16.80;99.90;;;;;;5071487;28;20029;-62
2021/06/21 02:09:48;;;;;;;12.55;2.40;;;16.70;99.90;;;;;;5073553;28;20128;-62
2021/06/21 02:12:19;;;;;;;13.57;3.25;;;16.80;99.90;;;;;;5072555;28;20032;-63
2021/06/21 02:14:48;;;;;;;9.13;2.70;;;16.70;99.90;;;;;;5073297;28;20028;-62
2021/06/21 02:17:15;;;;;;;12.23;2.35;;;16.80;99.90;;;;;;5072353;28;20056;-63
2021/06/21 02:19:41;;;;;;;8.15;2.45;;;16.80;99.90;;;;;;5073399;28;20035;-62
2021/06/21 02:22:07;;;;;;;6.28;2.08;;;16.70;99.90;;;;;;5072178;28;20029;-62
2021/06/21 02:24:35;;;;;;;9.90;2.38;;;16.80;99.90;;;;;;5072717;28;21740;-62
2021/06/21 02:27:03;;;;;;;16.27;3.00;;;16.70;99.90;;;;;;5072770;28;20029;-62
2021/06/21 02:29:30;;;;;;;11.00;2.47;;;16.70;99.90;;;;;;5072996;28;20044;-62
2021/06/21 02:31:56;;;;;;;14.25;3.10;;;16.70;99.90;;;;;;5073030;28;20036;-62
2021/06/21 02:34:23;;;;;;;10.75;3.50;;;16.80;99.90;;;;;;5071489;28;20026;-63
2021/06/21 02:36:49;;;;;;;19.35;3.83;;;16.80;99.90;;;;;;5072850;28;20028;-63
2021/06/21 02:39:15;;;;;;;10.98;3.42;;;16.80;99.90;;;;;;5071762;28;20047;-62
2021/06/21 02:41:41;;;;;;;13.85;3.58;;;16.80;99.90;;;;;;5072883;28;20025;-63
2021/06/21 02:44:07;;;;;;;7.93;3.42;;;16.80;99.90;;;;;;5071930;28;20031;-63
2021/06/21 02:46:33;;;;;;;10.00;3.17;;;16.80;99.90;;;;;;5072658;28;20052;-63
2021/06/21 02:48:59;;;;;;;10.20;3.30;;;16.80;99.90;;;;;;5072614;28;20154;-65
2021/06/21 02:51:51;;;;;;;10.48;2.70;;;16.80;99.90;;;;;;5071580;28;20082;-62
2021/06/21 02:54:26;;;;;;;13.32;3.33;;;16.80;99.90;;;;;;5071698;28;20120;-62
2021/06/21 02:57:09;;;;;;;12.13;3.08;;;16.80;99.90;;;;;;5072442;28;20482;-62
2021/06/21 02:59:38;;;;;;;12.65;3.05;;;16.80;99.90;;;;;;5054774;28;20063;-62
2021/06/21 03:02:08;;;;;;;11.45;3.30;;;16.80;99.90;;;;;;5071478;28;20075;-62
2021/06/21 03:04:38;;;;;;;10.27;2.97;;;16.90;99.90;;;;;;5071856;28;20478;-62
2021/06/21 03:07:06;;;;;;;9.82;2.65;;;16.90;99.90;;;;;;5068871;28;20040;-62
2021/06/21 03:09:33;;;;;;;8.80;2.40;;;17.00;99.90;;;;;;5067399;28;20040;-63
2021/06/21 03:12:01;;;;;;;8.27;2.55;;;17.00;99.90;;;;;;5071899;28;20039;-62
2021/06/21 03:14:28;;;;;;;9.18;2.40;;;16.90;99.90;;;;;;5071589;28;20474;-62
2021/06/21 03:16:57;;;;;;;9.13;1.98;;;16.80;99.90;;;;;;5054102;28;20428;-62
2021/06/21 03:19:25;;;;;;;11.68;2.97;;;16.90;99.90;;;;;;5052907;28;20564;-63
2021/06/21 03:21:51;;;;;;;14.60;2.50;;;16.80;99.90;;;;;;5064497;28;20529;-62
2021/06/21 03:24:22;;;;;;;11.88;2.47;;;16.80;99.90;;;;;;5062176;28;20112;-62
2021/06/21 03:26:48;;;;;;;10.13;2.45;;;16.80;99.90;;;;;;5064593;28;20123;-62
2021/06/21 03:29:16;;;;;;;8.00;2.20;;;16.80;99.90;;;;;;5060832;28;20427;-63
2021/06/21 03:31:44;;;;;;;13.77;2.85;;;16.80;99.90;;;;;;5063912;28;20024;-63
2021/06/21 03:34:11;;;;;;;22.52;2.22;;;16.80;99.90;;;;;;5062576;28;20032;-63
2021/06/21 03:36:38;;;;;;;6.07;2.30;;;16.80;99.90;;;;;;5062979;28;20029;-62
2021/06/21 03:39:04;;;;;;;9.35;2.13;;;16.80;99.90;;;;;;5062670;28;20036;-63
2021/06/21 03:41:30;;;;;;;7.35;1.90;;;16.80;99.90;;;;;;5059855;28;20028;-62
2021/06/21 03:43:55;;;;;;;14.93;2.45;;;16.80;99.90;;;;;;5062918;28;20469;-63
2021/06/21 03:46:21;;;;;;;9.82;2.13;;;16.80;99.90;;;;;;5043452;28;20119;-63
2021/06/21 03:48:46;;;;;;;8.07;2.72;;;16.90;99.90;;;;;;5044342;28;20043;-62
2021/06/21 03:51:12;;;;;;;12.20;2.08;;;16.90;99.90;;;;;;5070291;28;20063;-62
2021/06/21 03:53:38;;;;;;;12.70;2.55;;;17.00;99.90;;;;;;5070858;28;20076;-63
2021/06/21 03:56:04;;;;;;;11.05;2.53;;;17.10;99.90;;;;;;5069810;28;20078;-63
2021/06/21 03:58:30;;;;;;;8.70;2.30;;;17.20;99.90;;;;;;5071450;28;20024;-62
2021/06/21 04:00:56;;;;;;;6.90;2.08;;;17.20;99.90;;;;;;5071635;28;20052;-63
2021/06/21 04:03:23;;;;;;;5.40;1.50;;;17.20;99.90;;;;;;5070337;28;20093;-63
2021/06/21 04:05:50;;;;;;;5.82;1.70;;;17.30;99.90;;;;;;5071512;28;20032;-62
2021/06/21 04:08:16;;;;;;;9.93;2.38;;;17.30;99.90;;;;;;5045906;28;20040;-62
2021/06/21 04:10:44;;;;;;;9.57;2.05;;;17.40;99.90;;;;;;5071168;28;20036;-63
2021/06/21 04:13:10;;;;;;;8.23;2.38;;;17.40;99.90;;;;;;5070601;28;20035;-62
2021/06/21 04:15:36;;;;;;;7.50;1.80;;;17.40;99.90;;;;;;5071021;28;20039;-62
2021/06/21 04:18:08;;;;;;;9.70;1.90;;;17.40;99.90;;;;;;5071197;28;20033;-62
2021/06/21 04:20:34;;;;;;;7.38;2.10;;;17.50;99.90;;;;;;5071146;28;20098;-62
2021/06/21 04:23:00;;;;;;;17.80;2.50;;;17.60;99.90;;;;;;5070882;28;20040;-62
2021/06/21 04:25:26;;;;;;;11.40;2.10;;;17.60;99.90;;;;;;5070390;28;20598;-63
2021/06/21 04:27:52;;;;;;;11.25;2.08;;;17.60;99.90;;;;;;5070844;28;20481;-62
2021/06/21 04:30:20;;;;;;;15.35;2.15;;;17.70;99.90;;;;;;5070178;28;20024;-62
2021/06/21 04:32:46;;;;;;;11.88;1.85;;;17.70;99.90;;;;;;5075288;28;20418;-62
2021/06/21 04:35:14;;;;;;;8.57;2.47;;;17.70;99.90;;;;;;5073972;28;20048;-63
2021/06/21 04:37:40;;;;;;;15.30;2.15;;;17.70;99.90;;;;;;5075216;28;20026;-62
2021/06/21 04:40:09;;;;;;;6.57;1.73;;;17.70;99.90;;;;;;5074336;28;20033;-62
2021/06/21 04:42:34;;;;;;;9.50;2.10;;;17.70;99.90;;;;;;5075033;28;20024;-62
2021/06/21 04:45:00;;;;;;;11.10;2.08;;;17.70;99.90;;;;;;5075312;28;20052;-62
2021/06/21 04:47:26;;;;;;;7.43;1.75;;;17.70;99.90;;;;;;5056163;28;20462;-63
2021/06/21 04:49:53;;;;;;;8.15;2.20;;;17.70;99.90;;;;;;5074768;28;20048;-63
2021/06/21 04:52:20;;;;;;;6.38;1.75;;;17.70;99.90;;;;;;5073807;28;20033;-62
2021/06/21 04:54:49;;;;;;;13.48;2.10;;;17.60;99.90;;;;;;5075402;28;20052;-62
2021/06/21 04:57:16;;;;;;;9.47;2.13;;;17.60;99.90;;;;;;5074556;28;20056;-62
2021/06/21 04:59:42;;;;;;;9.45;2.67;;;17.60;99.90;;;;;;5075215;28;20028;-63
2021/06/21 05:02:07;;;;;;;8.85;1.65;;;17.60;99.90;;;;;;5067974;28;20120;-63
2021/06/21 05:04:33;;;;;;;12.95;2.20;;;17.70;99.90;;;;;;5063427;28;20058;-62
2021/06/21 05:06:59;;;;;;;13.10;1.75;;;17.70;99.90;;;;;;5062572;28;20104;-73
2021/06/21 05:09:25;;;;;;;7.53;1.95;;;17.80;99.90;;;;;;5045714;28;20025;-74
2021/06/21 05:11:51;;;;;;;9.38;2.13;;;17.90;99.90;;;;;;5063298;28;20029;-72
2021/06/21 05:14:17;;;;;;;6.10;2.20;;;18.00;99.90;;;;;;5057470;28;20024;-73
2021/06/21 05:16:42;;;;;;;14.30;2.03;;;18.20;99.90;;;;;;5055184;28;20028;-75
2021/06/21 05:19:08;;;;;;;11.13;1.75;;;18.30;99.90;;;;;;5054367;28;20032;-73
2021/06/21 05:21:34;;;;;;;10.10;1.77;;;18.40;99.90;;;;;;5036652;28;20040;-73
2021/06/21 05:24:00;;;;;;;12.32;2.05;;;18.50;99.90;;;;;;5054878;28;20056;-75
2021/06/21 05:26:25;;;;;;;10.38;2.78;;;18.60;99.90;;;;;;5058803;28;20386;-72
2021/06/21 05:28:52;;;;;;;9.52;1.48;;;18.70;99.90;;;;;;5067163;28;20029;-72
2021/06/21 05:31:17;;;;;;;10.43;2.08;;;18.80;99.90;;;;;;5064962;28;20021;-74
2021/06/21 05:33:43;;;;;;;10.77;2.63;;;18.90;99.90;;;;;;5059511;28;20351;-74
2021/06/21 05:36:10;;;;;;;12.90;2.47;;;19.00;99.90;;;;;;5053714;28;20033;-72
2021/06/21 05:38:36;;;;;;;9.65;1.60;;;19.10;99.90;;;;;;5054779;28;20033;-74
2021/06/21 05:41:02;;;;;;;7.18;1.77;;;19.10;99.90;;;;;;5054322;28;20029;-74
2021/06/21 05:43:27;;;;;;;9.35;1.50;;;19.30;99.90;;;;;;5051374;28;20257;-74
2021/06/21 05:45:54;;;;;;;10.32;2.30;;;19.30;99.90;;;;;;5053960;28;20023;-75
2021/06/21 05:48:20;;;;;;;10.23;2.42;;;19.40;99.90;;;;;;5053106;28;20040;-75
2021/06/21 05:50:45;;;;;;;10.90;1.65;;;19.50;99.90;;;;;;5054115;28;20033;-74
2021/06/21 05:53:11;;;;;;;11.40;1.77;;;19.70;99.90;;;;;;5052663;28;20351;-72
2021/06/21 05:55:37;;;;;;;7.93;2.00;;;19.70;99.90;;;;;;5054208;28;20032;-72
2021/06/21 05:58:03;;;;;;;11.93;2.10;;;19.80;99.90;;;;;;5053460;28;20509;-72
2021/06/21 06:00:28;;;;;;;12.95;1.90;;;20.00;99.90;;;;;;5053198;28;20072;-72
2021/06/21 06:02:54;;;;;;;8.05;1.80;;;20.10;99.90;;;;;;5053989;28;20032;-73
2021/06/21 06:05:20;;;;;;;7.07;1.70;;;20.30;99.90;;;;;;5056532;28;20029;-73
2021/06/21 06:07:46;;;;;;;6.55;1.88;;;20.40;99.90;;;;;;5065178;28;20512;-72
2021/06/21 06:10:12;;;;;;;10.30;1.83;;;20.50;99.90;;;;;;5052300;28;20045;-72
2021/06/21 06:12:38;;;;;;;6.68;1.50;;;20.50;99.90;;;;;;5073285;28;20032;-72
2021/06/21 06:15:05;;;;;;;10.93;2.10;;;20.50;99.90;;;;;;5072555;28;20031;-79
2021/06/21 06:17:30;;;;;;;7.72;1.55;;;20.50;99.30;;;;;;5072822;28;20055;-78
2021/06/21 06:19:56;;;;;;;8.90;1.83;;;20.50;99.10;;;;;;5075364;28;20105;-75
2021/06/21 06:22:22;;;;;;;7.45;1.70;;;20.50;98.90;;;;;;5072903;28;20029;-79
2021/06/21 06:24:48;;;;;;;11.38;2.00;;;20.60;98.40;;;;;;5073729;28;20081;-79
2021/06/21 06:27:14;;;;;;;6.32;1.45;;;20.60;98.80;;;;;;5072443;28;20056;-78
2021/06/21 06:29:39;;;;;;;9.00;1.70;;;20.70;98.30;;;;;;5073116;28;20111;-78
2021/06/21 06:32:06;;;;;;;11.68;1.70;;;20.80;99.00;;;;;;5073615;28;20112;-79
2021/06/21 06:34:32;;;;;;;8.13;1.92;;;20.90;97.30;;;;;;5054979;28;20031;-78
2021/06/21 06:36:58;;;;;;;9.45;2.25;;;21.00;96.70;;;;;;5073454;28;20020;-79
2021/06/21 06:39:24;;;;;;;8.27;2.13;;;21.10;95.90;;;;;;5072234;28;20025;-79
2021/06/21 06:41:50;;;;;;;13.70;2.38;;;21.20;94.90;;;;;;5074398;28;21405;-78
2021/06/21 06:44:16;;;;;;;10.20;2.00;;;21.30;93.70;;;;;;5077879;28;20372;-79
2021/06/21 06:46:42;;;;;;;10.82;1.70;;;21.30;94.40;;;;;;5081893;28;20039;-79
2021/06/21 06:49:08;;;;;;;10.13;1.80;;;21.40;94.70;;;;;;5093892;28;20082;-76
2021/06/21 06:51:42;;;;;;;8.95;2.53;;;21.50;92.90;;;;;;5087838;28;20481;-79
2021/06/21 06:54:29;;;;;;;9.20;1.90;;;21.50;93.90;;;;;;5105307;28;20051;-74
2021/06/21 06:56:59;;;;;;;5.43;1.70;;;21.60;91.20;;;;;;5113199;28;20405;-79
2021/06/21 06:59:33;;;;;;;7.40;1.50;;;21.60;91.70;;;;;;5112343;28;20031;-81
2021/06/21 07:02:00;;;;;;;7.57;1.75;;;21.60;91.30;;;;;;5112764;28;20480;-80
2021/06/21 07:04:26;;;;;;;8.38;1.83;;;21.70;91.10;;;;;;5112030;28;20028;-79
2021/06/21 07:06:52;;;;;;;10.15;1.67;;;21.80;91.30;;;;;;5090194;28;20052;-80
2021/06/21 07:09:18;;;;;;;11.35;1.92;;;21.90;90.20;;;;;;5081599;28;20382;-80
2021/06/21 07:11:45;;;;;;;7.28;2.70;;;22.00;90.00;;;;;;5092688;28;20040;-80
2021/06/21 07:14:11;;;;;;;6.57;1.52;;;22.00;89.80;;;;;;5091949;28;20024;-77
2021/06/21 07:16:37;;;;;;;5.63;1.60;;;22.10;89.50;;;;;;5092753;28;20035;-80
2021/06/21 07:19:04;;;;;;;5.88;1.40;;;22.20;89.50;;;;;;5099026;28;20067;-80
2021/06/21 07:21:30;;;;;;;7.88;1.67;;;22.30;88.90;;;;;;5097788;28;20586;-80
2021/06/21 07:23:56;;;;;;;4.47;1.20;;;22.40;88.30;;;;;;5093780;28;20031;-79
2021/06/21 07:26:21;;;;;;;5.55;1.50;;;22.60;87.20;;;;;;5092131;28;20027;-79
2021/06/21 07:28:48;;;;;;;5.90;1.60;;;22.70;85.70;;;;;;5092339;28;20039;-80
2021/06/21 07:31:14;;;;;;;9.07;1.63;;;22.80;86.40;;;;;;5091656;28;20028;-79
2021/06/21 07:33:40;;;;;;;5.20;1.52;;;22.90;82.70;;;;;;5092203;28;20453;-80
2021/06/21 07:36:06;;;;;;;6.45;1.25;;;23.00;83.40;;;;;;5092709;28;20028;-79
2021/06/21 07:38:32;;;;;;;6.50;1.40;;;23.10;80.10;;;;;;5090614;28;20093;-81
2021/06/21 07:40:58;;;;;;;10.60;1.52;;;23.30;80.00;;;;;;5090877;28;20032;-80
2021/06/21 07:43:24;;;;;;;3.33;1.00;;;23.30;77.40;;;;;;5092660;28;20039;-80
2021/06/21 07:45:50;;;;;;;5.18;1.80;;;23.40;77.00;;;;;;5094649;28;20054;-80
2021/06/21 07:48:16;;;;;;;4.60;1.30;;;23.50;75.60;;;;;;5092925;28;20081;-79
2021/06/21 07:50:42;;;;;;;6.50;1.70;;;23.50;76.50;;;;;;5091897;28;20085;-80
2021/06/21 07:53:09;;;;;;;5.93;1.58;;;23.60;75.80;;;;;;5086488;28;20135;-75
2021/06/21 07:55:35;;;;;;;6.40;1.67;;;23.70;75.30;;;;;;5071614;28;20024;-80
2021/06/21 07:58:02;;;;;;;6.18;1.60;;;23.70;75.70;;;;;;5071950;28;20048;-79
2021/06/21 08:00:29;;;;;;;5.78;1.25;;;23.80;74.20;;;;;;5070890;28;20024;-80
2021/06/21 08:02:56;;;;;;;4.63;1.65;;;23.90;73.50;;;;;;5071839;28;20099;-80
2021/06/21 08:05:23;;;;;;;3.83;1.13;;;23.90;73.70;;;;;;5070140;28;20481;-80
2021/06/21 08:07:49;;;;;;;5.95;1.60;;;24.00;73.50;;;;;;5062891;28;20021;-81
2021/06/21 08:10:16;;;;;;;5.63;1.88;;;24.10;73.20;;;;;;5050841;28;20036;-79
2021/06/21 08:12:43;;;;;;;7.63;1.40;;;24.10;73.10;;;;;;5051646;28;20152;-80
2021/06/21 08:15:11;;;;;;;8.02;1.92;;;24.30;73.90;;;;;;5051118;28;20052;-76
2021/06/21 08:17:40;;;;;;;7.10;1.65;;;24.40;72.10;;;;;;5051513;28;20048;-81
2021/06/21 08:20:08;;;;;;;10.27;1.70;;;24.50;71.90;;;;;;5034431;28;20069;-80
2021/06/21 08:22:34;;;;;;;4.47;1.33;;;24.60;71.10;;;;;;5051217;28;20060;-80
2021/06/21 08:25:00;;;;;;;2.80;1.35;;;24.60;70.30;;;;;;5053390;28;20060;-81
2021/06/21 08:27:28;;;;;;;7.35;1.67;;;24.80;69.30;;;;;;5055554;28;20037;-81
2021/06/21 08:29:53;;;;;;;8.30;1.88;;;24.90;68.90;;;;;;5055813;28;20470;-81
2021/06/21 08:32:19;;;;;;;5.15;1.30;;;25.10;68.30;;;;;;5056543;28;20021;-80
2021/06/21 08:34:45;;;;;;;5.78;1.42;;;25.20;68.00;;;;;;5057578;28;20030;-81
2021/06/21 08:37:11;;;;;;;6.90;1.77;;;25.30;68.00;;;;;;5052682;28;20052;-75
2021/06/21 08:39:38;;;;;;;6.28;1.50;;;25.40;66.40;;;;;;5051262;28;20035;-80
2021/06/21 08:42:05;;;;;;;5.20;1.40;;;25.40;65.60;;;;;;5051257;28;20076;-81
2021/06/21 08:44:34;;;;;;;7.47;1.42;;;25.30;66.20;;;;;;5049776;28;20069;-81
2021/06/21 08:47:02;;;;;;;3.17;1.25;;;25.30;66.80;;;;;;5051198;28;20388;-81
2021/06/21 08:49:31;;;;;;;2.70;1.15;;;25.30;66.10;;;;;;5050505;28;20033;-81
2021/06/21 08:51:58;;;;;;;2.47;1.27;;;25.30;66.40;;;;;;5051558;28;20033;-82
2021/06/21 08:54:23;;;;;;;3.00;1.20;;;25.30;65.90;;;;;;5065522;28;20508;-81
2021/06/21 08:56:49;;;;;;;4.05;1.50;;;25.20;65.30;;;;;;5071489;28;20024;-82
2021/06/21 08:59:15;;;;;;;6.38;1.33;;;25.30;66.60;;;;;;5070741;28;20035;-82
2021/06/21 09:01:41;;;;;;;4.97;1.42;;;25.30;65.60;;;;;;5078175;28;20028;-81
2021/06/21 09:04:11;;;;;;;4.53;1.55;;;25.20;65.30;;;;;;5087728;28;20484;-77
2021/06/21 09:06:39;;;;;;;3.10;1.47;;;25.10;65.80;;;;;;5078140;28;20045;-82
2021/06/21 09:09:06;;;;;;;8.80;1.85;;;25.10;65.80;;;;;;5071639;28;20283;-81
2021/06/21 09:11:49;;;;;;;5.75;1.35;;;25.10;66.80;;;;;;5083690;28;20159;-82
2021/06/21 09:14:24;;;;;;;5.90;1.60;;;25.20;66.20;;;;;;5090445;28;20031;-81
2021/06/21 09:16:50;;;;;;;6.05;1.40;;;25.30;64.80;;;;;;5091994;28;20056;-82
2021/06/21 09:19:19;;;;;;;4.35;1.20;;;25.40;65.40;;;;;;5090059;28;20100;-82
2021/06/21 09:21:45;;;;;;;4.68;1.58;;;25.50;65.50;;;;;;5094947;28;20036;-82
2021/06/21 09:24:16;;;;;;;9.18;1.88;;;25.60;65.40;;;;;;5094171;28;20384;-76
2021/06/21 09:26:43;;;;;;;5.68;1.42;;;25.80;65.20;;;;;;5094489;28;20020;-82
2021/06/21 09:29:10;;;;;;;6.07;1.65;;;25.90;64.60;;;;;;5094835;28;20074;-76
2021/06/21 09:32:08;;;;;;;7.53;2.08;;;26.00;64.00;;;;;;5094933;28;20031;-83
2021/06/21 09:34:34;;;;;;;5.70;1.55;;;26.00;64.10;;;;;;5051373;28;20115;-83
2021/06/21 09:37:18;;;;;;;2.83;1.35;;;26.00;62.80;;;;;;5075397;28;20031;-83
2021/06/21 09:39:49;;;;;;;5.65;1.10;;;26.20;62.10;;;;;;5075474;28;20392;-83
2021/06/21 09:42:24;;;;;;;2.88;1.08;;;26.20;61.70;;;;;;5093986;28;20021;-82
2021/06/21 09:45:00;;;;;;;5.60;1.42;;;26.40;60.60;;;;;;5094114;28;20046;-81
2021/06/21 09:47:34;;;;;;;4.38;1.63;;;26.60;60.40;;;;;;5092932;28;20056;-83
2021/06/21 09:50:17;;;;;;;6.10;1.73;;;26.70;59.90;;;;;;5093714;28;20047;-82
2021/06/21 09:52:47;;;;;;;3.90;1.23;;;26.90;59.30;;;;;;5092981;28;20476;-81
2021/06/21 09:55:18;;;;;;;;;;;27.00;60.00;;;;;;5073971;28;20041;-80
2021/06/21 09:57:45;;;;;;;7.15;1.60;;;27.10;58.60;;;;;;5074362;28;19909;-81
2021/06/21 10:00:13;;;;;;;6.50;2.03;;;27.30;59.10;;;;;;5073665;28;20420;-75
2021/06/21 10:02:40;;;;;;;5.68;1.65;;;27.40;58.90;;;;;;5073976;28;20021;-82
2021/06/21 10:05:18;;;;;;;6.00;1.30;;;27.60;58.30;;;;;;5074016;28;20051;-81
2021/06/21 10:07:44;;;;;;;3.90;1.63;;;27.70;57.90;;;;;;5065722;28;20056;-82
2021/06/21 10:10:14;;;;;;;7.50;1.95;;;27.80;57.60;;;;;;5053334;28;20114;-76
2021/06/21 10:12:40;;;;;;;8.80;2.30;;;27.70;58.90;;;;;;5054271;28;20106;-82
2021/06/21 10:15:08;;;;;;;10.23;1.95;;;27.70;57.10;;;;;;5053644;28;20079;-80
2021/06/21 10:17:33;;;;;;;6.70;1.80;;;27.80;57.50;;;;;;5053362;28;20053;-83
2021/06/21 10:19:59;;;;;;;6.20;1.90;;;27.80;57.50;;;;;;5053712;28;20118;-83
2021/06/21 10:22:26;;;;;;;5.80;1.45;;;27.90;57.60;;;;;;5052991;28;20029;-83
2021/06/21 10:24:55;;;;;;;6.00;1.33;;;27.80;57.90;;;;;;5053913;28;20064;-84
2021/06/21 10:27:21;;;;;;;3.63;1.40;;;28.00;57.10;;;;;;5053201;28;20047;-84
2021/06/21 10:29:47;;;;;;;5.13;1.77;;;28.00;57.50;;;;;;5053986;28;20107;-84
2021/06/21 10:32:14;;;;;;;4.68;1.35;;;28.30;56.90;;;;;;5054476;28;20032;-85
2021/06/21 10:34:40;;;;;;;6.50;1.50;;;28.40;56.20;;;;;;5071759;28;20025;-83
2021/06/21 10:37:20;;;;;;;7.88;1.50;;;28.30;55.70;;;;;;5076498;28;20040;-80
2021/06/21 10:39:51;;;;;;;2.20;1.50;;;28.30;56.40;;;;;;5061077;28;20082;-85
2021/06/21 10:42:25;;;;;;;7.28;2.80;;;28.30;55.30;;;;;;5038506;28;20021;-84
2021/06/21 10:44:56;;;;;;;2.80;1.23;;;28.20;56.00;;;;;;5058110;28;20056;-86
2021/06/21 10:47:23;;;;;;;6.90;1.90;;;28.20;55.30;;;;;;5052769;28;20134;-85
2021/06/21 10:50:00;;;;;;;6.68;1.40;;;28.20;55.80;;;;;;5053175;28;20045;-78
2021/06/21 10:52:36;;;;;;;3.40;1.40;;;28.30;55.10;;;;;;5034512;28;20424;-80
2021/06/21 10:55:27;;;;;;;3.60;1.60;;;28.50;55.40;;;;;;5052957;28;20139;-79
2021/06/21 10:57:54;;;;;;;2.20;1.48;;;28.60;54.70;;;;;;5053023;28;20493;-78
2021/06/21 11:00:29;;;;;;;2.55;1.85;;;28.70;54.30;;;;;;5034220;28;20545;-78
2021/06/21 11:02:55;;;;;;;4.53;1.70;;;28.90;52.80;;;;;;5053004;28;20036;-79
2021/06/21 11:05:42;;;;;;;4.30;1.50;;;29.00;52.60;;;;;;5051596;28;20021;-78
2021/06/21 11:08:15;;;;;;;3.15;1.27;;;29.10;52.00;;;;;;5064189;28;20461;-65
2021/06/21 11:10:41;;;;;;;4.32;1.40;;;29.20;52.60;;;;;;5065898;28;20056;-64
2021/06/21 11:13:33;;;;;;;4.53;1.15;;;29.20;52.30;;;;;;5052238;28;20033;-64
2021/06/21 11:16:19;;;;;;;6.60;1.42;;;29.30;51.50;;;;;;5048254;28;20037;-64
2021/06/21 11:19:04;;;;;;;2.72;1.30;;;29.60;51.60;;;;;;5052408;28;20055;-63
2021/06/21 11:21:42;;;;;;;3.03;1.15;;;29.70;50.80;;;;;;5051308;28;20021;-64
2021/06/21 11:24:08;;;;;;;2.78;1.13;;;29.90;50.20;;;;;;5052125;28;20036;-64
2021/06/21 11:27:03;;;;;;;2.33;1.00;;;30.50;51.30;;;;;;5051610;28;20025;-64
2021/06/21 11:29:38;;;;;;;5.38;1.77;;;29.90;50.20;;;;;;5051402;28;20124;-64
2021/06/21 11:32:05;;;;;;;5.07;1.75;;;29.80;50.60;;;;;;5052184;28;20029;-64
2021/06/21 11:34:49;;;;;;;7.00;1.20;;;29.70;51.70;;;;;;5051323;28;20024;-64
2021/06/21 11:37:41;;;;;;;3.40;1.42;;;29.70;50.90;;;;;;5050582;28;20075;-64
2021/06/21 11:40:27;;;;;;;8.68;1.92;;;29.80;52.30;;;;;;5051967;28;20120;-64
2021/06/21 11:42:56;;;;;;;3.78;1.17;;;29.70;50.10;;;;;;5052033;28;20432;-64
2021/06/21 11:45:56;;;;;;;2.42;1.00;;;29.60;50.40;;;;;;5051238;28;20029;-64
2021/06/21 11:48:32;;;;;;;2.05;1.10;;;29.40;50.80;;;;;;5051127;28;20024;-64
2021/06/21 11:51:01;;;;;;;5.30;1.30;;;29.30;51.00;;;;;;5051734;28;20098;-64
2021/06/21 11:53:28;;;;;;;3.15;1.30;;;29.40;50.70;;;;;;5058260;28;20056;-64
2021/06/21 11:55:54;;;;;;;3.70;1.20;;;29.70;50.90;;;;;;5072209;28;20039;-63
2021/06/21 11:58:28;;;;;;;3.15;1.10;;;29.80;50.40;;;;;;5071123;28;20036;-63
2021/06/21 12:00:54;;;;;;;3.03;1.17;;;29.60;51.40;;;;;;5071943;28;20073;-63
2021/06/21 12:03:33;;;;;;;6.53;1.88;;;29.50;51.00;;;;;;5074262;28;20020;-63
2021/06/21 12:05:59;;;;;;;8.15;1.60;;;29.20;51.30;;;;;;5091906;28;20361;-63
2021/06/21 12:08:25;;;;;;;4.82;1.30;;;29.00;51.40;;;;;;5085950;28;20024;-63
2021/06/21 12:10:50;;;;;;;4.20;1.23;;;29.00;52.40;;;;;;5091935;28;20028;-62
2021/06/21 12:13:21;;;;;;;3.92;1.23;;;29.20;51.80;;;;;;5090991;28;20028;-63
2021/06/21 12:15:47;;;;;;;5.10;1.55;;;29.30;51.60;;;;;;5090572;28;20107;-63
2021/06/21 12:18:13;;;;;;;4.18;2.03;;;29.60;50.80;;;;;;5090775;28;20036;-63
2021/06/21 12:20:39;;;;;;;4.20;1.45;;;29.80;51.00;;;;;;5091354;28;20028;-63
2021/06/21 12:23:09;;;;;;;4.82;1.17;;;29.80;51.20;;;;;;5091835;28;20024;-63
2021/06/21 12:25:36;;;;;;;2.97;1.30;;;29.80;51.50;;;;;;5090941;28;20389;-63
2021/06/21 12:28:27;;;;;;;3.35;1.33;;;29.60;51.70;;;;;;5091349;28;20028;-62
2021/06/21 12:31:00;;;;;;;2.40;1.50;;;29.40;50.40;;;;;;5091775;28;20093;-63
2021/06/21 12:33:30;;;;;;;4.80;1.42;;;29.00;51.50;;;;;;5090500;28;20028;-63
2021/06/21 12:36:02;;;;;;;;;;;28.70;52.30;;;;;;5092023;28;20081;-63
2021/06/21 12:38:28;;;;;;;2.58;1.50;;;28.40;52.20;;;;;;5090674;28;19912;-62
2021/06/21 12:40:55;;;;;;;3.03;1.38;;;28.10;52.60;;;;;;5090149;28;20431;-62
2021/06/21 12:43:21;;;;;;;5.53;1.75;;;27.90;53.20;;;;;;5090254;28;20099;-63
2021/06/21 12:45:46;;;;;;;3.65;1.30;;;27.80;53.60;;;;;;5091441;28;20124;-62
2021/06/21 12:48:12;;;;;;;3.78;1.10;;;27.60;54.90;;;;;;5090650;28;20078;-63
2021/06/21 12:50:38;;;;;;;2.60;1.25;;;27.50;54.10;;;;;;5090777;28;20384;-62
2021/06/21 12:53:07;;;;;;;3.58;1.25;;;27.50;53.80;;;;;;5089777;28;20055;-62
2021/06/21 12:55:33;;;;;;;4.15;1.60;;;27.40;54.60;;;;;;5074350;28;20132;-62